Terminal Aerodrome Forecast
Issued by NWS Cleveland, OH

Home | Current Version | Previous Version | Text Only | Print | Product List | Glossary On
Versions: 1 2 3 4 5 6 7 8 9 10 11 12 13 14 15 16 17
687
FTUS41 KCLE 231921 AAA
TAFERI
TAF AMD
KERI 231921Z 2319/2418 22013KT P6SM OVC035
      TEMPO 2320/2322 3SM SHRA OVC015
     FM232200 24010KT P6SM VCSH OVC025
     FM240000 27008KT P6SM OVC015
     FM240200 29008KT P6SM BKN025
     FM240500 26006KT P6SM BKN035=

USA.gov is the U.S. government's official web portal to all federal, state and local government web resources and services.